KAUG/AUG METAR and TAF weather

Enter ICAO airport designator
Station Type Date Time Source
KAUG METAR 2020/06/02 17:53 UTC NOAA

KAUG 021753Z AUTO VRB03KT 10SM CLR 18/00 A2987 RMK AO2 SLP118 T01780000 10178 20106 57032


Station Type Date Time Source
KAUG Decoded METAR 2020/06/02 17:53 UTC NOAA

AUGUSTA STATE AIRPORT, ME, United States (KAUG) 44-19N 069-48W 109M
Jun 02, 2020 - 01:53 PM EDT / 2020.06.02 1753 UTC
Wind: Variable at 3 MPH (3 KT):0
Visibility: 10 mile(s):0
Sky conditions: clear
Temperature: 64.0 F (17.8 C)
Dew Point: 32.0 F (0.0 C)
Relative Humidity: 29%
Pressure (altimeter): 29.87 in. Hg (1011 hPa)
Pressure tendency: 0.09 inches (3.2 hPa) lower than three hours ago
ob: KAUG 021753Z AUTO VRB03KT 10SM CLR 18/00 A2987 RMK AO2 SLP118 T01780000 10178 20106 57032
cycle: 18

Station Type Date Time Source
KAUG TAF 2020/06/02 18:22 UTC NOAA

TAF KAUG 021720Z 0218/0318 25009KT P6SM SKC
FM021900 26008G14KT P6SM BKN070
FM030100 VRB03KT P6SM OVC060

Example: see airport list